Algiers, LA

12:14 PM CDT on July 01, 2015 (GMT -0500)
Gulf Coast Special Systems | | Change Station
CLOSE
Current Station
Personal Weather Station
Location: Gretna, LA
Elevation: 25 ft
Nearby Weather Stations

Elev 25 ft 29.91 °N, 90.05 °W | Updated 19 seconds ago

Partly Cloudy
Partly Cloudy
91.9 °F
Feels Like 107 °F
N
3.0
Wind Variable Wind from SSW
Gusts 7.0 mph

Today
High -- | Low -- °F
--% Chance of Precip.
Yesterday
High -- | Low -- °F
Precip. -- in
6:02 AM 8:05 PM
Full, 100% visible
Pressure 30.13 in
Visibility 10.0 miles
Clouds Scattered Clouds 2600 ft
Scattered Clouds 12000 ft
Mostly Cloudy 25000 ft
Heat Index 107 °F
Dew Point 78 °F
Humidity 64%
Rainfall 0.00 in
Snow Depth Not available.
UV 7 out of 12
Pollen 3.10 out of 12
Air Quality Not available.
Flu Activity Not available.
METAR KNBG 011655Z 23009KT 10SM SCT026TCU SCT120 BKN250 31/24 A3013 RMK AO2 SLP201 TCU NW T03060244 $

More Conditions Fewer Conditions

Pressure 30.13 in
Visibility 10.0 miles
Clouds Scattered Clouds 2600 ft
Scattered Clouds 12000 ft
Mostly Cloudy 25000 ft
Heat Index 107 °F
Dew Point 78 °F
Humidity 64%
Rainfall 0.00 in
Snow Depth Not available.
UV 7 out of 12
Pollen 3.10 out of 12
Air Quality Not available.
Flu Activity Not available.
METAR KNBG 011655Z 23009KT 10SM SCT026TCU SCT120 BKN250 31/24 A3013 RMK AO2 SLP201 TCU NW T03060244 $

More Conditions Fewer Conditions

10-Day Weather Forecast

×

Almanac

Astronomy

Jul. 01, 2015 Rise Set
Actual Time
Civil Twilight
Nautical Twilight
Astronomical Twilight
Moon
Length of Visible Light
Length of Day
Tomorrow will be .
, % of the Moon is Illuminated

Today's Extremes

State Highs State Lows

Community

WunderPhotos

Upload Photos

1,834,248 photos uploaded!

WunderBlogs® & News

Nearby

Air Quality

  Air Quality AQ Index Pollutant
Not available.

Snow Depth

Station Depth Elevation

Earthquake Activity

City Distance Mag. Time & Date
Minimum magnitude displayed is 2.5.

Coastal Water Temperatures

Place Temperature

Stations

Nearby Weather Stations

Station Location Temp. Windchill Dew Point Humidity Wind Precip. Elev Updated Type